Leioa, Spain
Current Conditions -  °F | °C
As of 7:30 AM on Wednesday 28 Jan 2015 (Local Time) from LEBB Reporting Station
Light Rain Light Rain  
Wind Chill: 46°   Ceiling: 3500
Heat Index: 46°   Visibility: 6mi
Dew Point: 46°   Wind: 0mph
Humidity: 100%   Direction: NA
Pressure: 30.33"   Gusts: NA
Location:  43.33°N, 2.98°W
Report Text: LEBB 280630Z 00000KT 9999 -RA SCT016 BKN035 08/08 Q1027 NOSIG
Loading
Personal Weather Stations






























Interactive Weather Map New forecast layout! Learn more

10-Day Weather Forecast

Advertisements
Track Severe Weather on mobile